Time;durP1;ratioP1;P1;durP2;ratioP2;P2;SDS_P1;SDS_P2;PMS_P1;PMS_P2;Temp;Humidity;BMP_temperature;BMP_pressure;BME280_temperature;BME280_humidity;BME280_pressure;Samples;Min_cycle;Max_cycle;Signal;HPM_P1;HPM_P2
2021/12/24 00:00:51;;;;;;;;;38.75;36.00;;;;;;;;5061447;28;10633;-85
2021/12/24 00:03:18;;;;;;;;;35.25;29.00;;;;;;;;5061522;28;10678;-80
2021/12/24 00:05:46;;;;;;;;;31.75;31.75;;;;;;;;5060122;28;10662;-91
2021/12/24 00:08:13;;;;;;;;;25.25;19.25;;;;;;;;5060962;28;10881;-87
2021/12/24 00:10:43;;;;;;;;;35.75;32.75;;;;;;;;5067171;28;10765;-88
2021/12/24 00:13:14;;;;;;;;;28.50;28.50;;;;;;;;5063231;28;10918;-91
2021/12/24 00:16:01;;;;;;;;;33.75;26.50;;;;;;;;5055257;28;10900;-84
2021/12/24 00:18:37;;;;;;;;;30.75;29.00;;;;;;;;5063949;28;10688;-88
2021/12/24 00:35:14;;;;;;;;;44.25;37.75;;;;;;;;5056622;28;10681;-86
2021/12/24 00:37:44;;;;;;;;;29.25;25.25;;;;;;;;5061582;28;11739;-80
2021/12/24 00:40:17;;;;;;;;;33.75;32.50;;;;;;;;5064729;28;10788;-89
2021/12/24 00:42:47;;;;;;;;;34.50;27.75;;;;;;;;5064648;28;10632;-84
2021/12/24 00:45:17;;;;;;;;;27.50;26.00;;;;;;;;5067523;28;10755;-81
2021/12/24 00:47:44;;;;;;;;;26.25;26.00;;;;;;;;5065238;28;10899;-83
2021/12/24 00:50:15;;;;;;;;;35.25;26.50;;;;;;;;5066834;28;10962;-81
2021/12/24 00:52:48;;;;;;;;;25.00;23.25;;;;;;;;5057312;28;10753;-80
2021/12/24 00:55:16;;;;;;;;;31.00;25.75;;;;;;;;5064837;28;10851;-77
2021/12/24 00:57:49;;;;;;;;;20.75;19.25;;;;;;;;5061086;28;10890;-78
2021/12/24 01:00:20;;;;;;;;;23.25;21.00;;;;;;;;5065758;28;11059;-83
2021/12/24 01:02:48;;;;;;;;;17.00;13.50;;;;;;;;5063409;28;11003;-81
2021/12/24 01:05:16;;;;;;;;;24.75;18.00;;;;;;;;5065577;28;11094;-84
2021/12/24 01:07:45;;;;;;;;;33.75;30.00;;;;;;;;5064517;28;11348;-85
2021/12/24 01:10:15;;;;;;;;;30.00;24.75;;;;;;;;5059892;28;11161;-78
2021/12/24 01:12:42;;;;;;;;;28.25;25.75;;;;;;;;5062520;28;11151;-79
2021/12/24 01:15:14;;;;;;;;;32.25;30.00;;;;;;;;5065930;28;11254;-82
2021/12/24 01:17:46;;;;;;;;;36.50;29.25;;;;;;;;5064703;28;11226;-84
2021/12/24 01:20:19;;;;;;;;;26.25;26.25;;;;;;;;5066414;28;11404;-82
2021/12/24 01:25:35;;;;;;;;;26.50;23.00;;;;;;;;5059782;28;11284;-87
2021/12/24 01:28:29;;;;;;;;;27.50;23.25;;;;;;;;5065190;28;11231;-78
2021/12/24 01:39:19;;;;;;;;;32.00;29.00;;;;;;;;5061716;28;11515;-86
2021/12/24 01:44:32;;;;;;;;;39.25;37.50;;;;;;;;5066110;28;11512;-87
2021/12/24 01:47:02;;;;;;;;;37.75;35.50;;;;;;;;5065363;28;11556;-90
2021/12/24 01:49:30;;;;;;;;;35.00;32.00;;;;;;;;5064006;28;11703;-82
2021/12/24 01:51:57;;;;;;;;;34.50;27.50;;;;;;;;5063731;28;11204;-87
2021/12/24 01:54:25;;;;;;;;;34.75;34.25;;;;;;;;5064075;28;11318;-91
2021/12/24 01:56:53;;;;;;;;;34.75;29.00;;;;;;;;5061298;28;11284;-86
2021/12/24 01:59:20;;;;;;;;;35.75;33.50;;;;;;;;5062000;28;11534;-83
2021/12/24 02:01:49;;;;;;;;;34.25;32.00;;;;;;;;5064343;28;11118;-82
2021/12/24 02:04:19;;;;;;;;;38.50;36.25;;;;;;;;5064936;28;11089;-86
2021/12/24 02:06:47;;;;;;;;;37.50;31.50;;;;;;;;5062227;28;11320;-81
2021/12/24 02:09:15;;;;;;;;;34.25;30.50;;;;;;;;5067568;28;11328;-84
2021/12/24 02:11:43;;;;;;;;;28.25;27.50;;;;;;;;5061822;28;11203;-79
2021/12/24 02:14:13;;;;;;;;;29.75;28.75;;;;;;;;5057791;28;11177;-84
2021/12/24 02:16:53;;;;;;;;;34.00;32.00;;;;;;;;5065398;28;11081;-79
2021/12/24 02:30:32;;;;;;;;;34.75;28.50;;;;;;;;5063436;28;10972;-81
2021/12/24 02:32:59;;;;;;;;;41.50;35.25;;;;;;;;5062444;28;11182;-80
2021/12/24 02:35:26;;;;;;;;;41.25;35.75;;;;;;;;5060487;28;11258;-82
2021/12/24 02:37:55;;;;;;;;;24.00;24.00;;;;;;;;5060207;28;11252;-85
2021/12/24 02:40:23;;;;;;;;;17.75;14.75;;;;;;;;5059871;28;11010;-88
2021/12/24 02:42:53;;;;;;;;;36.75;30.50;;;;;;;;5061506;28;11131;-85
2021/12/24 02:45:21;;;;;;;;;29.75;29.75;;;;;;;;5056927;28;11238;-79
2021/12/24 02:56:03;;;;;;;;;39.75;36.50;;;;;;;;5062852;28;11857;-80
2021/12/24 02:58:39;;;;;;;;;32.75;29.75;;;;;;;;5064416;28;11555;-77
2021/12/24 03:01:09;;;;;;;;;39.75;35.25;;;;;;;;5061802;28;11155;-89
2021/12/24 03:03:36;;;;;;;;;33.25;31.25;;;;;;;;5064267;28;11533;-85
2021/12/24 03:06:04;;;;;;;;;42.00;39.25;;;;;;;;5062514;28;11213;-79
2021/12/24 03:08:33;;;;;;;;;34.00;32.25;;;;;;;;5061276;28;11587;-76
2021/12/24 03:11:00;;;;;;;;;36.25;33.50;;;;;;;;5060484;28;11346;-83
2021/12/24 03:13:29;;;;;;;;;35.00;35.00;;;;;;;;5058770;28;11163;-77
2021/12/24 03:15:59;;;;;;;;;49.25;39.75;;;;;;;;5055480;28;11245;-80
2021/12/24 03:18:28;;;;;;;;;39.00;36.50;;;;;;;;5054164;28;11239;-90
2021/12/24 03:21:03;;;;;;;;;37.75;37.00;;;;;;;;5063368;28;11234;-84
2021/12/24 03:23:39;;;;;;;;;40.00;37.25;;;;;;;;5061378;28;11287;-86
2021/12/24 03:26:07;;;;;;;;;36.00;35.00;;;;;;;;5061388;28;11271;-81
2021/12/24 03:28:35;;;;;;;;;44.50;38.75;;;;;;;;5063484;28;11192;-79
2021/12/24 03:31:03;;;;;;;;;37.00;34.25;;;;;;;;5063563;28;11410;-82
2021/12/24 03:33:31;;;;;;;;;43.00;37.00;;;;;;;;5067596;28;11420;-81
2021/12/24 03:35:58;;;;;;;;;39.75;35.75;;;;;;;;5059446;28;11247;-85
2021/12/24 03:38:25;;;;;;;;;35.75;35.75;;;;;;;;5058975;28;11355;-91
2021/12/24 03:40:54;;;;;;;;;48.00;42.00;;;;;;;;5052086;28;11566;-82
2021/12/24 03:43:21;;;;;;;;;43.25;38.75;;;;;;;;5058243;28;11657;-93
2021/12/24 03:45:58;;;;;;;;;40.00;38.00;;;;;;;;5045361;28;11542;-89
2021/12/24 03:48:38;;;;;;;;;43.00;38.25;;;;;;;;5056483;28;11563;-92
2021/12/24 03:51:22;;;;;;;;;42.25;36.25;;;;;;;;5061532;28;11546;-87
2021/12/24 03:56:38;;;;;;;;;45.50;39.50;;;;;;;;5054709;28;11537;-81
2021/12/24 03:59:06;;;;;;;;;44.00;39.25;;;;;;;;5057329;28;11547;-90
2021/12/24 04:01:34;;;;;;;;;44.50;40.50;;;;;;;;5060510;28;11373;-88
2021/12/24 04:04:01;;;;;;;;;44.25;36.50;;;;;;;;5065304;28;11564;-88
2021/12/24 04:06:29;;;;;;;;;39.00;35.00;;;;;;;;5066129;28;11329;-86
2021/12/24 04:08:56;;;;;;;;;40.25;37.00;;;;;;;;5062853;28;11101;-85
2021/12/24 04:11:24;;;;;;;;;43.75;40.25;;;;;;;;5062176;28;11267;-88
2021/12/24 04:13:53;;;;;;;;;45.50;36.75;;;;;;;;5058062;28;11308;-84
2021/12/24 04:16:25;;;;;;;;;43.00;39.25;;;;;;;;5061327;28;11791;-83
2021/12/24 04:19:02;;;;;;;;;26.75;23.50;;;;;;;;5063975;28;11358;-78
2021/12/24 04:27:01;;;;;;;;;26.75;24.75;;;;;;;;5039957;28;10954;-83
2021/12/24 04:29:30;;;;;;;;;34.00;32.25;;;;;;;;5059621;28;11192;-80
2021/12/24 04:32:09;;;;;;;;;43.75;39.50;;;;;;;;5062825;28;10894;-86
2021/12/24 04:34:38;;;;;;;;;40.25;35.75;;;;;;;;5056380;28;11122;-87
2021/12/24 04:50:55;;;;;;;;;37.75;35.50;;;;;;;;5053530;28;11075;-81
2021/12/24 04:51:12;;;;;;;;;35.50;33.00;;;;;;;;5059823;28;11006;-90
2021/12/24 05:02:13;;;;;;;;;25.00;21.25;;;;;;;;5052763;28;11002;-85
2021/12/24 05:04:49;;;;;;;;;41.00;39.00;;;;;;;;5052167;28;10966;-83
2021/12/24 05:07:36;;;;;;;;;41.25;34.50;;;;;;;;5056702;28;11004;-82
2021/12/24 05:10:06;;;;;;;;;34.50;33.25;;;;;;;;5060679;28;11870;-78
2021/12/24 05:12:34;;;;;;;;;37.75;35.75;;;;;;;;5060428;28;11099;-86
2021/12/24 05:15:02;;;;;;;;;34.50;33.00;;;;;;;;5072477;28;11166;-81
2021/12/24 05:17:44;;;;;;;;;33.75;33.75;;;;;;;;5065141;28;11390;-77
2021/12/24 05:22:56;;;;;;;;;44.25;39.75;;;;;;;;5064340;28;11140;-88
2021/12/24 05:25:24;;;;;;;;;37.25;34.75;;;;;;;;5063527;28;11113;-78
2021/12/24 05:27:52;;;;;;;;;29.50;25.25;;;;;;;;5065056;28;11292;-81
2021/12/24 05:30:20;;;;;;;;;37.00;36.75;;;;;;;;5058958;28;11509;-78
2021/12/24 05:32:49;;;;;;;;;41.75;36.25;;;;;;;;5063096;28;11325;-79
2021/12/24 05:35:16;;;;;;;;;45.25;40.50;;;;;;;;5064362;28;11314;-77
2021/12/24 05:37:44;;;;;;;;;39.25;37.00;;;;;;;;5060610;28;11568;-79
2021/12/24 05:40:11;;;;;;;;;38.00;37.25;;;;;;;;5064690;28;11024;-78
2021/12/24 05:42:39;;;;;;;;;40.00;35.25;;;;;;;;5063725;28;11281;-79
2021/12/24 05:45:07;;;;;;;;;30.75;28.75;;;;;;;;5065805;28;11160;-77
2021/12/24 05:47:35;;;;;;;;;48.00;42.75;;;;;;;;5060813;28;11746;-77
2021/12/24 05:50:05;;;;;;;;;42.25;39.50;;;;;;;;5072772;28;11520;-79
2021/12/24 05:52:33;;;;;;;;;45.75;39.00;;;;;;;;5062306;28;11395;-80
2021/12/24 05:55:01;;;;;;;;;38.75;36.25;;;;;;;;5062381;28;11069;-77
2021/12/24 05:57:28;;;;;;;;;33.25;32.75;;;;;;;;5065229;28;11887;-80
2021/12/24 05:59:56;;;;;;;;;36.67;32.67;;;;;;;;5064139;28;11623;-77
2021/12/24 06:02:24;;;;;;;;;38.50;33.50;;;;;;;;5062479;28;11112;-79
2021/12/24 06:04:51;;;;;;;;;43.25;36.00;;;;;;;;5062704;28;11077;-81
2021/12/24 06:07:20;;;;;;;;;41.25;39.75;;;;;;;;5064186;28;11183;-80
2021/12/24 06:09:47;;;;;;;;;42.50;37.50;;;;;;;;5064181;28;11146;-80
2021/12/24 06:12:14;;;;;;;;;39.50;31.75;;;;;;;;5062699;28;11085;-79
2021/12/24 06:14:45;;;;;;;;;37.50;36.50;;;;;;;;5060148;28;10930;-77
2021/12/24 06:17:15;;;;;;;;;33.00;30.50;;;;;;;;5060653;28;10889;-75
2021/12/24 06:19:43;;;;;;;;;37.25;34.00;;;;;;;;5060375;28;11691;-73
2021/12/24 06:22:11;;;;;;;;;31.50;28.00;;;;;;;;5060977;28;10888;-73
2021/12/24 06:24:40;;;;;;;;;31.25;30.25;;;;;;;;5070262;28;10890;-72
2021/12/24 06:27:07;;;;;;;;;37.25;34.25;;;;;;;;5056701;28;10853;-72
2021/12/24 06:29:35;;;;;;;;;37.00;35.00;;;;;;;;5056130;28;11812;-76
2021/12/24 06:32:02;;;;;;;;;44.50;37.00;;;;;;;;5062488;28;10855;-72
2021/12/24 06:34:31;;;;;;;;;36.25;32.00;;;;;;;;5056880;28;10781;-72
2021/12/24 06:37:02;;;;;;;;;35.25;31.25;;;;;;;;5063411;28;11006;-74
2021/12/24 06:39:30;;;;;;;;;40.75;39.75;;;;;;;;5064503;28;10934;-72
2021/12/24 06:42:00;;;;;;;;;36.50;34.75;;;;;;;;5066481;28;10927;-73
2021/12/24 06:44:27;;;;;;;;;35.50;28.75;;;;;;;;5064160;28;10933;-73
2021/12/24 06:46:55;;;;;;;;;34.50;33.25;;;;;;;;5062920;28;11052;-72
2021/12/24 06:49:22;;;;;;;;;38.50;32.50;;;;;;;;5061020;28;10939;-75
2021/12/24 06:51:50;;;;;;;;;38.50;36.50;;;;;;;;5060870;28;10985;-72
2021/12/24 06:54:17;;;;;;;;;40.75;36.75;;;;;;;;5061962;28;11192;-72
2021/12/24 06:56:45;;;;;;;;;33.75;33.50;;;;;;;;5063183;28;11022;-73
2021/12/24 06:59:14;;;;;;;;;38.00;35.50;;;;;;;;5063426;28;10992;-72
2021/12/24 07:01:42;;;;;;;;;43.75;41.00;;;;;;;;5060941;28;11176;-74
2021/12/24 07:04:09;;;;;;;;;40.25;38.00;;;;;;;;5064272;28;11267;-73
2021/12/24 07:06:37;;;;;;;;;50.00;42.25;;;;;;;;5053203;28;11848;-72
2021/12/24 07:09:04;;;;;;;;;51.25;40.00;;;;;;;;5051586;28;11219;-72
2021/12/24 07:11:32;;;;;;;;;47.50;40.75;;;;;;;;5058964;28;11229;-73
2021/12/24 07:14:00;;;;;;;;;47.25;37.00;;;;;;;;5062402;28;11284;-73
2021/12/24 07:16:29;;;;;;;;;44.00;39.00;;;;;;;;5050065;28;11126;-72
2021/12/24 07:18:56;;;;;;;;;56.00;43.50;;;;;;;;5058474;28;11298;-73
2021/12/24 07:21:23;;;;;;;;;56.00;41.50;;;;;;;;5060830;28;11536;-73
2021/12/24 07:23:50;;;;;;;;;40.75;35.75;;;;;;;;5058606;28;11225;-76
2021/12/24 07:26:20;;;;;;;;;46.50;40.25;;;;;;;;5058521;28;12403;-74
2021/12/24 07:28:48;;;;;;;;;54.50;41.75;;;;;;;;5061139;28;11238;-73
2021/12/24 07:31:16;;;;;;;;;51.50;41.50;;;;;;;;5062090;28;11619;-74
2021/12/24 07:33:45;;;;;;;;;40.75;37.75;;;;;;;;5061848;28;11588;-74
2021/12/24 07:36:13;;;;;;;;;38.50;34.00;;;;;;;;5061599;28;11200;-73
2021/12/24 07:38:42;;;;;;;;;42.50;39.00;;;;;;;;5063225;28;11146;-74
2021/12/24 07:41:11;;;;;;;;;53.00;44.25;;;;;;;;5063175;28;11312;-75
2021/12/24 07:43:38;;;;;;;;;55.50;47.00;;;;;;;;5042695;28;11551;-74
2021/12/24 07:46:06;;;;;;;;;47.50;42.50;;;;;;;;5059624;28;11605;-74
2021/12/24 07:48:43;;;;;;;;;41.50;38.50;;;;;;;;5062048;28;11618;-73
2021/12/24 07:54:00;;;;;;;;;43.25;40.50;;;;;;;;5059954;28;11183;-74
2021/12/24 07:56:28;;;;;;;;;51.25;42.00;;;;;;;;5059842;28;11374;-75
2021/12/24 07:58:56;;;;;;;;;45.50;39.75;;;;;;;;5061507;28;11587;-74
2021/12/24 08:01:27;;;;;;;;;32.50;32.50;;;;;;;;5060303;28;11626;-74
2021/12/24 08:03:55;;;;;;;;;52.00;41.25;;;;;;;;5060143;28;11581;-74
2021/12/24 08:06:25;;;;;;;;;43.00;37.75;;;;;;;;5061319;28;12504;-75
2021/12/24 08:08:53;;;;;;;;;53.25;43.00;;;;;;;;5061866;28;11544;-75
2021/12/24 08:11:20;;;;;;;;;48.25;40.25;;;;;;;;5060885;28;12424;-74
2021/12/24 08:13:48;;;;;;;;;38.75;38.00;;;;;;;;5058167;28;11564;-74
2021/12/24 08:16:15;;;;;;;;;46.50;41.50;;;;;;;;5059464;28;11260;-74
2021/12/24 08:18:44;;;;;;;;;45.25;39.50;;;;;;;;5060994;28;11544;-73
2021/12/24 08:21:12;;;;;;;;;46.50;39.50;;;;;;;;5059852;28;11303;-74
2021/12/24 08:23:41;;;;;;;;;40.25;38.50;;;;;;;;5061197;28;11286;-74
2021/12/24 08:26:09;;;;;;;;;44.50;40.00;;;;;;;;5059650;28;12314;-74
2021/12/24 08:28:36;;;;;;;;;44.25;38.50;;;;;;;;5060315;28;11297;-75
2021/12/24 08:31:04;;;;;;;;;50.00;42.00;;;;;;;;5060445;28;11259;-75
2021/12/24 08:33:33;;;;;;;;;48.25;41.75;;;;;;;;5058472;28;11662;-74
2021/12/24 08:36:01;;;;;;;;;39.25;36.75;;;;;;;;5060835;28;11184;-74
2021/12/24 08:38:29;;;;;;;;;43.75;40.00;;;;;;;;5060266;28;11050;-74
2021/12/24 08:40:57;;;;;;;;;45.00;39.50;;;;;;;;5059206;28;11258;-74
2021/12/24 08:43:25;;;;;;;;;49.50;40.75;;;;;;;;5059528;28;11265;-76
2021/12/24 08:45:55;;;;;;;;;46.25;38.00;;;;;;;;5061529;28;11428;-73
2021/12/24 08:48:23;;;;;;;;;38.50;37.75;;;;;;;;5062108;28;11194;-75
2021/12/24 08:50:50;;;;;;;;;38.75;36.75;;;;;;;;5061512;28;11263;-74
2021/12/24 08:53:18;;;;;;;;;45.75;39.50;;;;;;;;5066119;28;11247;-75
2021/12/24 08:55:45;;;;;;;;;41.75;38.00;;;;;;;;5067448;28;11248;-74
2021/12/24 08:58:19;;;;;;;;;39.75;38.25;;;;;;;;5063337;28;11098;-75
2021/12/24 09:00:47;;;;;;;;;40.50;37.00;;;;;;;;5046222;28;11025;-75
2021/12/24 09:03:15;;;;;;;;;39.50;38.00;;;;;;;;5052729;28;11738;-75
2021/12/24 09:05:42;;;;;;;;;44.00;40.25;;;;;;;;5060510;28;12037;-75
2021/12/24 09:08:09;;;;;;;;;48.00;39.75;;;;;;;;5057201;28;11258;-76
2021/12/24 09:10:37;;;;;;;;;40.00;37.25;;;;;;;;5064648;28;11244;-74
2021/12/24 09:13:04;;;;;;;;;30.75;30.75;;;;;;;;5063785;28;11037;-75
2021/12/24 09:15:33;;;;;;;;;42.25;37.00;;;;;;;;5063519;28;11072;-74
2021/12/24 09:18:02;;;;;;;;;70.25;55.75;;;;;;;;5060837;28;11009;-74
2021/12/24 09:20:35;;;;;;;;;46.75;42.25;;;;;;;;5062224;28;11575;-74
2021/12/24 09:23:03;;;;;;;;;172.00;147.00;;;;;;;;5060175;28;12053;-77
2021/12/24 09:25:31;;;;;;;;;61.50;50.00;;;;;;;;5057880;28;8877;-76
2021/12/24 09:27:59;;;;;;;;;61.50;49.50;;;;;;;;5062346;28;11528;-75
2021/12/24 09:30:29;;;;;;;;;40.25;38.50;;;;;;;;5064901;28;11499;-76
2021/12/24 09:32:59;;;;;;;;;53.00;42.50;;;;;;;;5065045;28;12013;-79
2021/12/24 09:35:27;;;;;;;;;63.75;50.25;;;;;;;;5061979;28;11322;-77
2021/12/24 09:37:55;;;;;;;;;60.50;49.00;;;;;;;;5061389;28;11537;-77
2021/12/24 09:40:23;;;;;;;;;53.00;44.00;;;;;;;;5063412;28;11582;-75
2021/12/24 09:42:50;;;;;;;;;47.25;43.50;;;;;;;;5061495;28;11541;-75
2021/12/24 09:45:18;;;;;;;;;50.00;41.00;;;;;;;;5064037;28;11755;-76
2021/12/24 09:47:46;;;;;;;;;43.25;36.75;;;;;;;;5062958;28;11233;-75
2021/12/24 09:50:18;;;;;;;;;46.00;42.00;;;;;;;;5064780;28;10908;-78
2021/12/24 09:52:45;;;;;;;;;41.00;37.75;;;;;;;;5063021;28;11018;-75
2021/12/24 09:55:15;;;;;;;;;43.00;39.75;;;;;;;;5060742;28;10896;-75
2021/12/24 09:57:43;;;;;;;;;37.75;33.75;;;;;;;;5063281;28;10979;-75
2021/12/24 10:00:11;;;;;;;;;42.00;37.00;;;;;;;;5062150;28;10729;-74
2021/12/24 10:02:42;;;;;;;;;38.25;36.75;;;;;;;;5061642;28;10743;-75
2021/12/24 10:05:29;;;;;;;;;45.75;39.25;;;;;;;;5061969;28;10855;-75
2021/12/24 10:08:07;;;;;;;;;33.25;32.75;;;;;;;;5062430;28;10783;-77
2021/12/24 10:10:36;;;;;;;;;33.25;30.25;;;;;;;;5059193;28;10695;-76
2021/12/24 10:13:28;;;;;;;;;38.75;36.50;;;;;;;;5062302;28;11415;-75
2021/12/24 10:15:58;;;;;;;;;36.50;32.50;;;;;;;;5057074;28;10941;-78
2021/12/24 10:18:30;;;;;;;;;33.25;30.75;;;;;;;;5056677;28;10780;-76
2021/12/24 10:21:05;;;;;;;;;39.50;36.00;;;;;;;;5058874;28;10784;-76
2021/12/24 10:23:52;;;;;;;;;33.50;28.50;;;;;;;;5060543;28;10456;-76
2021/12/24 10:26:27;;;;;;;;;31.50;30.00;;;;;;;;5056912;28;10520;-74
2021/12/24 10:29:00;;;;;;;;;32.50;31.25;;;;;;;;5058412;28;10680;-77
2021/12/24 10:31:30;;;;;;;;;29.25;28.00;;;;;;;;5061325;28;10558;-76
2021/12/24 10:34:12;;;;;;;;;33.75;31.50;;;;;;;;5062723;28;10526;-76
2021/12/24 10:37:09;;;;;;;;;38.00;37.50;;;;;;;;5063737;28;10518;-78
2021/12/24 10:39:42;;;;;;;;;41.25;37.75;;;;;;;;5025024;28;10739;-74
2021/12/24 10:42:14;;;;;;;;;43.50;39.75;;;;;;;;5063213;28;10850;-76
2021/12/24 10:44:43;;;;;;;;;44.00;38.00;;;;;;;;5057558;28;10916;-76
2021/12/24 10:47:15;;;;;;;;;48.25;43.25;;;;;;;;5063385;28;11124;-77
2021/12/24 10:55:27;;;;;;;;;35.75;35.75;;;;;;;;5059571;28;11084;-74
2021/12/24 10:57:57;;;;;;;;;38.25;36.00;;;;;;;;5059499;28;11013;-76
2021/12/24 11:00:29;;;;;;;;;38.00;36.75;;;;;;;;5060738;28;11019;-73
2021/12/24 11:02:59;;;;;;;;;41.00;38.25;;;;;;;;5061169;28;10998;-76
2021/12/24 11:05:30;;;;;;;;;38.75;33.00;;;;;;;;5064302;28;10997;-75
2021/12/24 11:08:00;;;;;;;;;35.75;35.50;;;;;;;;5060383;28;11851;-75
2021/12/24 11:10:29;;;;;;;;;28.00;26.25;;;;;;;;5062544;28;11580;-75
2021/12/24 11:12:58;;;;;;;;;28.75;24.50;;;;;;;;5063068;28;10768;-74
2021/12/24 11:15:29;;;;;;;;;37.00;32.25;;;;;;;;5062098;28;10662;-75
2021/12/24 11:18:00;;;;;;;;;35.75;33.25;;;;;;;;5061882;28;10662;-74
2021/12/24 11:20:30;;;;;;;;;33.00;30.25;;;;;;;;5061579;28;10758;-74
2021/12/24 11:23:02;;;;;;;;;28.75;26.00;;;;;;;;5061769;28;11401;-75
2021/12/24 11:25:36;;;;;;;;;26.00;24.00;;;;;;;;5063223;28;10458;-75
2021/12/24 11:28:04;;;;;;;;;22.25;18.25;;;;;;;;5059318;28;10472;-76
2021/12/24 11:30:36;;;;;;;;;19.25;17.25;;;;;;;;5059943;28;10035;-75
2021/12/24 11:33:04;;;;;;;;;19.75;18.00;;;;;;;;5060888;28;10086;-76
2021/12/24 11:35:32;;;;;;;;;16.50;16.50;;;;;;;;5061486;28;10040;-75
2021/12/24 11:38:02;;;;;;;;;15.25;15.25;;;;;;;;5061168;28;10063;-75
2021/12/24 11:40:30;;;;;;;;;8.50;7.50;;;;;;;;5063916;28;10073;-76
2021/12/24 11:43:02;;;;;;;;;15.00;15.00;;;;;;;;5061940;28;9760;-75
2021/12/24 11:45:32;;;;;;;;;20.25;18.75;;;;;;;;5062672;28;10615;-75
2021/12/24 11:48:01;;;;;;;;;17.75;17.75;;;;;;;;5062865;28;10003;-76
2021/12/24 11:50:29;;;;;;;;;18.25;14.50;;;;;;;;5061597;28;9764;-76
2021/12/24 11:52:59;;;;;;;;;20.75;17.50;;;;;;;;5060807;28;9556;-74
2021/12/24 11:55:33;;;;;;;;;20.50;17.25;;;;;;;;5061282;28;9561;-74
2021/12/24 11:58:03;;;;;;;;;20.00;20.00;;;;;;;;5062254;28;9715;-75
2021/12/24 12:00:33;;;;;;;;;17.25;14.00;;;;;;;;5058371;28;9779;-76
2021/12/24 12:03:00;;;;;;;;;15.25;13.00;;;;;;;;5065111;28;9646;-79
2021/12/24 12:05:33;;;;;;;;;12.00;12.00;;;;;;;;5062565;28;9652;-75
2021/12/24 12:08:45;;;;;;;;;12.75;11.50;;;;;;;;5061885;28;9770;-76
2021/12/24 12:11:24;;;;;;;;;14.75;14.75;;;;;;;;5058323;28;9584;-74
2021/12/24 12:13:54;;;;;;;;;11.75;11.75;;;;;;;;5059173;28;10141;-76
2021/12/24 12:16:25;;;;;;;;;13.25;12.00;;;;;;;;5060906;28;9954;-76
2021/12/24 12:19:11;;;;;;;;;10.00;10.00;;;;;;;;5062797;28;9902;-74
2021/12/24 12:21:40;;;;;;;;;14.00;14.00;;;;;;;;5061330;28;9960;-74
2021/12/24 12:27:02;;;;;;;;;16.75;15.50;;;;;;;;5058504;28;10033;-77
2021/12/24 12:29:43;;;;;;;;;16.25;16.25;;;;;;;;5061206;28;10137;-75
2021/12/24 12:32:47;;;;;;;;;8.50;7.00;;;;;;;;5062305;28;9930;-75
2021/12/24 12:35:16;;;;;;;;;14.25;14.25;;;;;;;;5053921;28;10098;-77
2021/12/24 12:37:49;;;;;;;;;17.00;14.00;;;;;;;;5068926;28;10074;-74
2021/12/24 12:40:32;;;;;;;;;18.00;14.50;;;;;;;;5062900;28;10490;-72
2021/12/24 12:43:18;;;;;;;;;15.00;13.00;;;;;;;;5066275;28;10139;-73
2021/12/24 12:46:01;;;;;;;;;12.50;10.00;;;;;;;;5065667;28;9875;-74
2021/12/24 12:48:45;;;;;;;;;15.75;13.75;;;;;;;;5055991;28;10597;-77
2021/12/24 12:51:13;;;;;;;;;14.25;14.25;;;;;;;;5052911;28;9920;-73
2021/12/24 12:53:41;;;;;;;;;19.25;14.25;;;;;;;;5054118;28;10758;-75
2021/12/24 12:56:14;;;;;;;;;18.75;15.25;;;;;;;;5066758;28;10160;-75
2021/12/24 12:58:47;;;;;;;;;19.25;18.50;;;;;;;;5064451;28;9703;-75
2021/12/24 13:01:17;;;;;;;;;21.50;16.25;;;;;;;;5063809;28;9922;-77
2021/12/24 13:04:15;;;;;;;;;18.50;18.50;;;;;;;;5065175;28;9919;-75
2021/12/24 13:06:54;;;;;;;;;14.50;13.75;;;;;;;;4998498;28;9979;-75
2021/12/24 13:09:33;;;;;;;;;15.00;14.75;;;;;;;;5054450;28;9867;-74
2021/12/24 13:12:03;;;;;;;;;16.00;13.00;;;;;;;;5058935;28;9958;-76
2021/12/24 13:14:37;;;;;;;;;16.25;16.25;;;;;;;;5060567;28;9708;-83
2021/12/24 13:20:09;;;;;;;;;18.75;18.75;;;;;;;;5061516;28;9542;-74
2021/12/24 13:22:37;;;;;;;;;21.00;18.75;;;;;;;;5064634;28;9740;-81
2021/12/24 13:25:10;;;;;;;;;24.00;22.75;;;;;;;;5062382;28;9608;-80
2021/12/24 13:27:41;;;;;;;;;29.25;24.00;;;;;;;;5065821;28;9716;-79
2021/12/24 13:30:15;;;;;;;;;24.75;23.25;;;;;;;;5063529;28;9761;-79
2021/12/24 13:32:47;;;;;;;;;25.25;25.25;;;;;;;;5059140;28;9688;-76
2021/12/24 13:35:19;;;;;;;;;24.25;21.50;;;;;;;;5059847;28;9755;-78
2021/12/24 13:37:50;;;;;;;;;27.75;20.50;;;;;;;;5061965;28;9612;-74
2021/12/24 13:40:21;;;;;;;;;24.25;20.50;;;;;;;;5064900;28;10580;-75
2021/12/24 13:42:51;;;;;;;;;19.75;19.75;;;;;;;;5061310;28;9806;-74
2021/12/24 13:45:24;;;;;;;;;23.50;21.25;;;;;;;;5065369;28;9686;-82
2021/12/24 13:48:01;;;;;;;;;26.75;23.00;;;;;;;;5063300;28;9790;-71
2021/12/24 13:55:58;;;;;;;;;19.50;19.50;;;;;;;;5022412;28;9777;-76
2021/12/24 13:58:26;;;;;;;;;24.25;21.75;;;;;;;;5023575;28;9692;-77
2021/12/24 14:00:57;;;;;;;;;18.00;17.50;;;;;;;;5020998;28;9589;-76
2021/12/24 14:03:25;;;;;;;;;22.00;18.00;;;;;;;;5026735;28;9744;-77
2021/12/24 14:05:57;;;;;;;;;19.75;17.75;;;;;;;;5025115;28;10478;-74
2021/12/24 14:08:29;;;;;;;;;15.75;15.75;;;;;;;;5024203;28;9675;-73
2021/12/24 14:11:07;;;;;;;;;22.50;21.00;;;;;;;;5021520;28;9572;-78
2021/12/24 14:13:39;;;;;;;;;21.75;19.75;;;;;;;;5023968;28;9724;-76
2021/12/24 14:18:55;;;;;;;;;31.00;25.00;;;;;;;;5018366;28;9962;-75
2021/12/24 14:21:46;;;;;;;;;24.25;19.25;;;;;;;;5024016;28;9907;-78
2021/12/24 14:24:16;;;;;;;;;19.75;17.75;;;;;;;;5022607;28;9796;-73
2021/12/24 14:26:46;;;;;;;;;18.00;15.75;;;;;;;;5019357;28;9789;-77
2021/12/24 14:29:23;;;;;;;;;11.75;11.75;;;;;;;;5014086;28;9760;-74
2021/12/24 14:31:58;;;;;;;;;22.50;21.00;;;;;;;;5019643;28;9593;-75
2021/12/24 14:34:38;;;;;;;;;25.25;25.25;;;;;;;;5019288;28;9507;-73
2021/12/24 14:37:08;;;;;;;;;19.50;19.50;;;;;;;;5028011;28;9629;-75
2021/12/24 14:39:37;;;;;;;;;25.00;23.00;;;;;;;;5023112;28;9632;-77
2021/12/24 14:42:20;;;;;;;;;13.25;13.25;;;;;;;;5016974;28;9760;-80
2021/12/24 14:44:50;;;;;;;;;22.50;20.75;;;;;;;;5016664;28;9555;-77
2021/12/24 14:47:28;;;;;;;;;20.50;19.50;;;;;;;;5009770;28;9559;-79
2021/12/24 14:50:05;;;;;;;;;22.50;22.50;;;;;;;;5016780;28;9555;-76
2021/12/24 14:52:33;;;;;;;;;21.75;20.25;;;;;;;;5016828;28;9584;-76
2021/12/24 14:55:22;;;;;;;;;29.75;27.25;;;;;;;;5048669;28;9763;-77
2021/12/24 14:58:07;;;;;;;;;28.50;25.00;;;;;;;;5056249;28;9725;-78
2021/12/24 15:00:38;;;;;;;;;31.50;31.50;;;;;;;;5061483;28;9534;-79
2021/12/24 15:03:12;;;;;;;;;32.00;30.75;;;;;;;;5059833;28;9689;-79
2021/12/24 15:05:42;;;;;;;;;35.75;31.00;;;;;;;;5056382;28;9825;-77
2021/12/24 15:08:16;;;;;;;;;31.75;30.25;;;;;;;;5056409;28;9753;-77
2021/12/24 15:11:08;;;;;;;;;34.50;33.00;;;;;;;;5058804;28;9722;-77
2021/12/24 15:13:38;;;;;;;;;32.00;30.00;;;;;;;;5057234;28;9903;-76
2021/12/24 15:16:06;;;;;;;;;25.25;23.75;;;;;;;;5061085;28;10806;-81
2021/12/24 15:18:34;;;;;;;;;29.50;29.50;;;;;;;;5061774;28;9869;-79
2021/12/24 15:21:02;;;;;;;;;40.25;37.75;;;;;;;;5060576;28;9926;-79
2021/12/24 15:23:30;;;;;;;;;51.25;42.50;;;;;;;;5058474;28;10435;-79
2021/12/24 15:25:59;;;;;;;;;35.75;35.75;;;;;;;;5060212;28;11549;-77
2021/12/24 15:28:26;;;;;;;;;32.75;28.25;;;;;;;;5056982;28;10860;-76
2021/12/24 15:30:54;;;;;;;;;27.00;26.50;;;;;;;;5062018;28;10096;-79
2021/12/24 15:33:23;;;;;;;;;26.50;25.50;;;;;;;;5059771;28;9942;-79
2021/12/24 15:35:54;;;;;;;;;25.25;25.00;;;;;;;;5058211;28;9720;-80
2021/12/24 15:38:23;;;;;;;;;35.25;35.25;;;;;;;;5060176;28;9833;-77
2021/12/24 15:40:51;;;;;;;;;39.75;32.50;;;;;;;;5059822;28;9893;-76
2021/12/24 15:43:19;;;;;;;;;39.50;36.75;;;;;;;;5060263;28;9892;-79
2021/12/24 15:45:47;;;;;;;;;49.00;38.75;;;;;;;;5060254;28;10114;-77
2021/12/24 15:48:14;;;;;;;;;38.25;36.75;;;;;;;;5059596;28;10254;-77
2021/12/24 15:50:42;;;;;;;;;49.00;40.00;;;;;;;;5063188;28;10204;-78
2021/12/24 15:53:12;;;;;;;;;38.00;34.50;;;;;;;;5055069;28;10212;-79
2021/12/24 15:55:40;;;;;;;;;32.75;29.25;;;;;;;;5063253;28;10154;-79
2021/12/24 15:58:09;;;;;;;;;31.50;29.25;;;;;;;;5057959;28;10064;-79
2021/12/24 16:00:38;;;;;;;;;34.75;34.50;;;;;;;;5059899;28;10014;-81
2021/12/24 16:03:06;;;;;;;;;39.50;35.25;;;;;;;;5061174;28;10112;-78
2021/12/24 16:05:34;;;;;;;;;30.00;27.75;;;;;;;;5058572;28;10502;-74
2021/12/24 16:08:02;;;;;;;;;43.75;38.25;;;;;;;;5063068;28;10218;-75
2021/12/24 16:10:32;;;;;;;;;39.50;35.00;;;;;;;;5053965;28;10478;-75
2021/12/24 16:13:00;;;;;;;;;38.00;36.00;;;;;;;;5054913;28;10294;-75
2021/12/24 16:15:30;;;;;;;;;39.25;36.00;;;;;;;;5058506;28;9974;-73
2021/12/24 16:17:57;;;;;;;;;34.00;29.00;;;;;;;;5062774;28;10231;-81
2021/12/24 16:20:25;;;;;;;;;33.75;33.75;;;;;;;;5051500;28;10135;-77